sensor_id;sensor_type;location;lat;lon;timestamp;P1;durP1;ratioP1;P2;durP2;ratioP2
71503;SDS011;59323;50.874;7.028;2024-02-26T00:00:41;4.13;;;1.10;;
71503;SDS011;59323;50.874;7.028;2024-02-26T00:03:06;3.00;;;0.93;;
71503;SDS011;59323;50.874;7.028;2024-02-26T00:05:31;3.23;;;1.00;;
71503;SDS011;59323;50.874;7.028;2024-02-26T00:07:57;2.43;;;0.80;;
71503;SDS011;59323;50.874;7.028;2024-02-26T00:10:22;3.97;;;0.87;;
71503;SDS011;59323;50.874;7.028;2024-02-26T00:12:47;3.17;;;0.90;;
71503;SDS011;59323;50.874;7.028;2024-02-26T00:15:13;6.30;;;1.07;;
71503;SDS011;59323;50.874;7.028;2024-02-26T00:17:40;3.00;;;0.88;;
71503;SDS011;59323;50.874;7.028;2024-02-26T00:20:09;3.38;;;1.00;;
71503;SDS011;59323;50.874;7.028;2024-02-26T00:22:35;6.65;;;0.90;;
71503;SDS011;59323;50.874;7.028;2024-02-26T00:25:03;2.78;;;0.98;;
71503;SDS011;59323;50.874;7.028;2024-02-26T00:27:29;2.43;;;0.77;;
71503;SDS011;59323;50.874;7.028;2024-02-26T00:29:54;2.13;;;0.80;;
71503;SDS011;59323;50.874;7.028;2024-02-26T00:32:22;3.23;;;0.77;;
71503;SDS011;59323;50.874;7.028;2024-02-26T00:34:48;2.58;;;0.90;;
71503;SDS011;59323;50.874;7.028;2024-02-26T00:37:13;3.20;;;0.70;;
71503;SDS011;59323;50.874;7.028;2024-02-26T00:39:38;1.93;;;0.60;;
71503;SDS011;59323;50.874;7.028;2024-02-26T00:42:06;2.15;;;0.70;;
71503;SDS011;59323;50.874;7.028;2024-02-26T00:44:32;2.17;;;0.60;;
71503;SDS011;59323;50.874;7.028;2024-02-26T00:46:57;2.10;;;0.60;;
71503;SDS011;59323;50.874;7.028;2024-02-26T00:49:23;3.63;;;0.90;;
71503;SDS011;59323;50.874;7.028;2024-02-26T00:51:48;3.43;;;0.67;;
71503;SDS011;59323;50.874;7.028;2024-02-26T00:54:13;2.00;;;0.60;;
71503;SDS011;59323;50.874;7.028;2024-02-26T00:56:41;3.45;;;0.70;;
71503;SDS011;59323;50.874;7.028;2024-02-26T00:59:06;1.40;;;0.50;;
71503;SDS011;59323;50.874;7.028;2024-02-26T01:01:31;2.37;;;0.80;;
71503;SDS011;59323;50.874;7.028;2024-02-26T01:03:59;3.60;;;0.90;;
71503;SDS011;59323;50.874;7.028;2024-02-26T01:06:27;2.58;;;0.70;;
71503;SDS011;59323;50.874;7.028;2024-02-26T01:08:55;2.22;;;0.63;;
71503;SDS011;59323;50.874;7.028;2024-02-26T01:11:22;4.23;;;0.80;;
71503;SDS011;59323;50.874;7.028;2024-02-26T01:13:48;1.10;;;0.50;;
71503;SDS011;59323;50.874;7.028;2024-02-26T01:16:14;2.63;;;0.53;;
71503;SDS011;59323;50.874;7.028;2024-02-26T01:18:39;2.28;;;0.60;;
71503;SDS011;59323;50.874;7.028;2024-02-26T01:21:04;2.30;;;0.60;;
71503;SDS011;59323;50.874;7.028;2024-02-26T01:23:33;2.37;;;0.60;;
71503;SDS011;59323;50.874;7.028;2024-02-26T01:25:59;2.92;;;0.77;;
71503;SDS011;59323;50.874;7.028;2024-02-26T01:28:24;2.83;;;0.43;;
71503;SDS011;59323;50.874;7.028;2024-02-26T01:30:50;2.00;;;0.47;;
71503;SDS011;59323;50.874;7.028;2024-02-26T01:33:15;2.27;;;0.60;;
71503;SDS011;59323;50.874;7.028;2024-02-26T01:35:43;1.63;;;0.50;;
71503;SDS011;59323;50.874;7.028;2024-02-26T01:38:08;2.07;;;0.63;;
71503;SDS011;59323;50.874;7.028;2024-02-26T01:40:36;2.45;;;0.70;;
71503;SDS011;59323;50.874;7.028;2024-02-26T01:43:04;2.85;;;0.82;;
71503;SDS011;59323;50.874;7.028;2024-02-26T01:45:31;2.60;;;0.60;;
71503;SDS011;59323;50.874;7.028;2024-02-26T01:47:57;1.85;;;0.55;;
71503;SDS011;59323;50.874;7.028;2024-02-26T01:50:23;1.50;;;0.50;;
71503;SDS011;59323;50.874;7.028;2024-02-26T01:52:49;1.42;;;0.60;;
71503;SDS011;59323;50.874;7.028;2024-02-26T01:55:17;1.30;;;0.50;;
71503;SDS011;59323;50.874;7.028;2024-02-26T01:57:46;1.60;;;0.60;;
71503;SDS011;59323;50.874;7.028;2024-02-26T02:00:13;2.85;;;0.52;;
71503;SDS011;59323;50.874;7.028;2024-02-26T02:02:39;2.63;;;0.90;;
71503;SDS011;59323;50.874;7.028;2024-02-26T02:05:09;2.10;;;0.50;;
71503;SDS011;59323;50.874;7.028;2024-02-26T02:07:39;1.35;;;0.52;;
71503;SDS011;59323;50.874;7.028;2024-02-26T02:10:06;2.72;;;0.60;;
71503;SDS011;59323;50.874;7.028;2024-02-26T02:12:34;2.73;;;0.60;;
71503;SDS011;59323;50.874;7.028;2024-02-26T02:15:01;2.60;;;0.60;;
71503;SDS011;59323;50.874;7.028;2024-02-26T02:17:27;2.10;;;0.65;;
71503;SDS011;59323;50.874;7.028;2024-02-26T02:19:53;2.67;;;0.50;;
71503;SDS011;59323;50.874;7.028;2024-02-26T02:22:20;2.78;;;0.73;;
71503;SDS011;59323;50.874;7.028;2024-02-26T02:24:46;4.50;;;0.53;;
71503;SDS011;59323;50.874;7.028;2024-02-26T02:27:12;2.17;;;0.60;;
71503;SDS011;59323;50.874;7.028;2024-02-26T02:29:37;1.80;;;0.50;;
71503;SDS011;59323;50.874;7.028;2024-02-26T02:32:03;3.07;;;0.57;;
71503;SDS011;59323;50.874;7.028;2024-02-26T02:34:29;4.03;;;0.60;;
71503;SDS011;59323;50.874;7.028;2024-02-26T02:36:55;2.57;;;0.97;;
71503;SDS011;59323;50.874;7.028;2024-02-26T02:39:22;2.00;;;0.50;;
71503;SDS011;59323;50.874;7.028;2024-02-26T02:41:48;2.60;;;0.93;;
71503;SDS011;59323;50.874;7.028;2024-02-26T02:44:15;2.05;;;0.55;;
71503;SDS011;59323;50.874;7.028;2024-02-26T02:46:41;2.80;;;0.70;;
71503;SDS011;59323;50.874;7.028;2024-02-26T02:49:09;2.08;;;0.63;;
71503;SDS011;59323;50.874;7.028;2024-02-26T02:51:37;3.10;;;0.67;;
71503;SDS011;59323;50.874;7.028;2024-02-26T02:54:03;1.63;;;0.50;;
71503;SDS011;59323;50.874;7.028;2024-02-26T02:56:28;4.17;;;0.60;;
71503;SDS011;59323;50.874;7.028;2024-02-26T02:58:54;2.20;;;0.60;;
71503;SDS011;59323;50.874;7.028;2024-02-26T03:01:19;2.77;;;0.63;;
71503;SDS011;59323;50.874;7.028;2024-02-26T03:03:45;0.87;;;0.37;;
71503;SDS011;59323;50.874;7.028;2024-02-26T03:06:10;4.63;;;0.70;;
71503;SDS011;59323;50.874;7.028;2024-02-26T03:08:35;2.83;;;0.50;;
71503;SDS011;59323;50.874;7.028;2024-02-26T03:11:04;2.20;;;0.80;;
71503;SDS011;59323;50.874;7.028;2024-02-26T03:13:32;1.55;;;0.50;;
71503;SDS011;59323;50.874;7.028;2024-02-26T03:15:57;2.53;;;0.60;;
71503;SDS011;59323;50.874;7.028;2024-02-26T03:18:23;1.87;;;0.47;;
71503;SDS011;59323;50.874;7.028;2024-02-26T03:20:48;1.67;;;0.40;;
71503;SDS011;59323;50.874;7.028;2024-02-26T03:23:14;0.85;;;0.40;;
71503;SDS011;59323;50.874;7.028;2024-02-26T03:25:42;1.67;;;0.43;;
71503;SDS011;59323;50.874;7.028;2024-02-26T03:28:08;1.87;;;0.60;;
71503;SDS011;59323;50.874;7.028;2024-02-26T03:30:34;1.75;;;0.40;;
71503;SDS011;59323;50.874;7.028;2024-02-26T03:32:59;1.40;;;0.50;;
71503;SDS011;59323;50.874;7.028;2024-02-26T03:35:25;4.30;;;0.60;;
71503;SDS011;59323;50.874;7.028;2024-02-26T03:37:54;2.40;;;0.70;;
71503;SDS011;59323;50.874;7.028;2024-02-26T03:40:22;2.33;;;0.70;;
71503;SDS011;59323;50.874;7.028;2024-02-26T03:42:48;3.87;;;0.90;;
71503;SDS011;59323;50.874;7.028;2024-02-26T03:45:13;1.73;;;0.60;;
71503;SDS011;59323;50.874;7.028;2024-02-26T03:47:41;1.20;;;0.40;;
71503;SDS011;59323;50.874;7.028;2024-02-26T03:50:09;2.08;;;0.50;;
71503;SDS011;59323;50.874;7.028;2024-02-26T03:52:34;2.73;;;0.50;;
71503;SDS011;59323;50.874;7.028;2024-02-26T03:54:59;2.23;;;0.70;;
71503;SDS011;59323;50.874;7.028;2024-02-26T03:57:25;1.30;;;0.47;;
71503;SDS011;59323;50.874;7.028;2024-02-26T03:59:50;2.10;;;0.73;;
71503;SDS011;59323;50.874;7.028;2024-02-26T04:02:16;2.90;;;0.60;;
71503;SDS011;59323;50.874;7.028;2024-02-26T04:04:41;1.77;;;0.60;;
71503;SDS011;59323;50.874;7.028;2024-02-26T04:07:06;2.03;;;0.50;;
71503;SDS011;59323;50.874;7.028;2024-02-26T04:09:32;2.20;;;0.40;;
71503;SDS011;59323;50.874;7.028;2024-02-26T04:11:57;1.67;;;0.50;;
71503;SDS011;59323;50.874;7.028;2024-02-26T04:14:22;4.40;;;0.90;;
71503;SDS011;59323;50.874;7.028;2024-02-26T04:16:48;2.03;;;0.70;;
71503;SDS011;59323;50.874;7.028;2024-02-26T04:19:16;2.38;;;0.55;;
71503;SDS011;59323;50.874;7.028;2024-02-26T04:21:42;2.17;;;0.70;;
71503;SDS011;59323;50.874;7.028;2024-02-26T04:24:09;0.87;;;0.40;;
71503;SDS011;59323;50.874;7.028;2024-02-26T04:26:35;1.58;;;0.50;;
71503;SDS011;59323;50.874;7.028;2024-02-26T04:29:02;4.07;;;0.90;;
71503;SDS011;59323;50.874;7.028;2024-02-26T04:31:28;2.17;;;0.60;;
71503;SDS011;59323;50.874;7.028;2024-02-26T04:33:53;1.50;;;0.60;;
71503;SDS011;59323;50.874;7.028;2024-02-26T04:36:21;2.33;;;0.50;;
71503;SDS011;59323;50.874;7.028;2024-02-26T04:38:47;2.27;;;0.70;;
71503;SDS011;59323;50.874;7.028;2024-02-26T04:41:14;1.67;;;0.52;;
71503;SDS011;59323;50.874;7.028;2024-02-26T04:43:40;2.37;;;0.60;;
71503;SDS011;59323;50.874;7.028;2024-02-26T04:46:07;3.40;;;0.60;;
71503;SDS011;59323;50.874;7.028;2024-02-26T04:48:33;2.58;;;0.60;;
71503;SDS011;59323;50.874;7.028;2024-02-26T04:50:59;3.83;;;0.60;;
71503;SDS011;59323;50.874;7.028;2024-02-26T04:53:25;1.23;;;0.50;;
71503;SDS011;59323;50.874;7.028;2024-02-26T04:55:50;1.75;;;0.63;;
71503;SDS011;59323;50.874;7.028;2024-02-26T04:58:19;3.37;;;0.77;;
71503;SDS011;59323;50.874;7.028;2024-02-26T05:00:44;3.13;;;0.70;;
71503;SDS011;59323;50.874;7.028;2024-02-26T05:03:12;2.67;;;0.70;;
71503;SDS011;59323;50.874;7.028;2024-02-26T05:05:41;1.85;;;0.70;;
71503;SDS011;59323;50.874;7.028;2024-02-26T05:08:09;5.28;;;0.90;;
71503;SDS011;59323;50.874;7.028;2024-02-26T05:10:37;1.60;;;0.47;;
71503;SDS011;59323;50.874;7.028;2024-02-26T05:13:05;1.52;;;0.50;;
71503;SDS011;59323;50.874;7.028;2024-02-26T05:15:33;2.53;;;0.80;;
71503;SDS011;59323;50.874;7.028;2024-02-26T05:17:59;2.07;;;0.70;;
71503;SDS011;59323;50.874;7.028;2024-02-26T05:20:25;3.13;;;0.80;;
71503;SDS011;59323;50.874;7.028;2024-02-26T05:22:50;3.90;;;0.70;;
71503;SDS011;59323;50.874;7.028;2024-02-26T05:25:16;2.73;;;0.80;;
71503;SDS011;59323;50.874;7.028;2024-02-26T05:27:42;3.05;;;0.80;;
71503;SDS011;59323;50.874;7.028;2024-02-26T05:30:08;3.45;;;0.80;;
71503;SDS011;59323;50.874;7.028;2024-02-26T05:32:34;3.28;;;0.80;;
71503;SDS011;59323;50.874;7.028;2024-02-26T05:35:02;3.00;;;0.90;;
71503;SDS011;59323;50.874;7.028;2024-02-26T05:37:33;3.27;;;0.90;;
71503;SDS011;59323;50.874;7.028;2024-02-26T05:39:58;2.83;;;0.75;;
71503;SDS011;59323;50.874;7.028;2024-02-26T05:42:24;3.53;;;0.73;;
71503;SDS011;59323;50.874;7.028;2024-02-26T05:44:49;5.07;;;1.00;;
71503;SDS011;59323;50.874;7.028;2024-02-26T05:47:15;4.63;;;1.03;;
71503;SDS011;59323;50.874;7.028;2024-02-26T05:49:40;3.67;;;0.82;;
71503;SDS011;59323;50.874;7.028;2024-02-26T05:52:06;4.57;;;1.07;;
71503;SDS011;59323;50.874;7.028;2024-02-26T05:54:34;3.63;;;0.80;;
71503;SDS011;59323;50.874;7.028;2024-02-26T05:57:01;2.63;;;0.80;;
71503;SDS011;59323;50.874;7.028;2024-02-26T05:59:27;9.37;;;1.30;;
71503;SDS011;59323;50.874;7.028;2024-02-26T06:01:52;2.57;;;0.70;;
71503;SDS011;59323;50.874;7.028;2024-02-26T06:04:17;3.80;;;1.20;;
71503;SDS011;59323;50.874;7.028;2024-02-26T06:06:46;4.43;;;1.17;;
71503;SDS011;59323;50.874;7.028;2024-02-26T06:09:11;2.13;;;0.80;;
71503;SDS011;59323;50.874;7.028;2024-02-26T06:11:39;2.97;;;0.88;;
71503;SDS011;59323;50.874;7.028;2024-02-26T06:14:04;4.80;;;0.97;;
71503;SDS011;59323;50.874;7.028;2024-02-26T06:16:30;4.72;;;1.00;;
71503;SDS011;59323;50.874;7.028;2024-02-26T06:18:55;3.43;;;0.90;;
71503;SDS011;59323;50.874;7.028;2024-02-26T06:21:21;3.75;;;0.82;;
71503;SDS011;59323;50.874;7.028;2024-02-26T06:23:49;3.43;;;0.80;;
71503;SDS011;59323;50.874;7.028;2024-02-26T06:26:15;3.05;;;1.02;;
71503;SDS011;59323;50.874;7.028;2024-02-26T06:28:41;3.40;;;1.20;;
71503;SDS011;59323;50.874;7.028;2024-02-26T06:31:06;2.83;;;0.90;;
71503;SDS011;59323;50.874;7.028;2024-02-26T06:33:31;3.70;;;0.93;;
71503;SDS011;59323;50.874;7.028;2024-02-26T06:35:57;4.38;;;1.05;;
71503;SDS011;59323;50.874;7.028;2024-02-26T06:38:23;4.20;;;1.30;;
71503;SDS011;59323;50.874;7.028;2024-02-26T06:40:51;3.72;;;0.98;;
71503;SDS011;59323;50.874;7.028;2024-02-26T06:43:19;3.78;;;1.15;;
71503;SDS011;59323;50.874;7.028;2024-02-26T06:45:44;3.53;;;1.23;;
71503;SDS011;59323;50.874;7.028;2024-02-26T06:48:10;3.70;;;1.10;;
71503;SDS011;59323;50.874;7.028;2024-02-26T06:50:35;3.60;;;1.00;;
71503;SDS011;59323;50.874;7.028;2024-02-26T06:53:00;3.80;;;1.27;;
71503;SDS011;59323;50.874;7.028;2024-02-26T06:55:26;4.23;;;1.37;;
71503;SDS011;59323;50.874;7.028;2024-02-26T06:57:51;3.67;;;1.37;;
71503;SDS011;59323;50.874;7.028;2024-02-26T07:00:17;3.80;;;1.33;;
71503;SDS011;59323;50.874;7.028;2024-02-26T07:02:43;4.53;;;1.30;;
71503;SDS011;59323;50.874;7.028;2024-02-26T07:05:15;3.40;;;1.15;;
71503;SDS011;59323;50.874;7.028;2024-02-26T07:07:42;2.97;;;1.07;;
71503;SDS011;59323;50.874;7.028;2024-02-26T07:10:10;4.13;;;1.02;;
71503;SDS011;59323;50.874;7.028;2024-02-26T07:12:37;3.95;;;1.10;;
71503;SDS011;59323;50.874;7.028;2024-02-26T07:15:03;3.47;;;1.08;;
71503;SDS011;59323;50.874;7.028;2024-02-26T07:17:30;5.07;;;1.40;;
71503;SDS011;59323;50.874;7.028;2024-02-26T07:19:55;4.00;;;1.23;;
71503;SDS011;59323;50.874;7.028;2024-02-26T07:22:21;4.03;;;1.30;;
71503;SDS011;59323;50.874;7.028;2024-02-26T07:24:46;4.77;;;1.13;;
71503;SDS011;59323;50.874;7.028;2024-02-26T07:27:11;5.60;;;1.23;;
71503;SDS011;59323;50.874;7.028;2024-02-26T07:29:37;3.27;;;1.10;;
71503;SDS011;59323;50.874;7.028;2024-02-26T07:32:07;4.45;;;1.42;;
71503;SDS011;59323;50.874;7.028;2024-02-26T07:34:35;3.53;;;1.00;;
71503;SDS011;59323;50.874;7.028;2024-02-26T07:37:02;4.17;;;1.10;;
71503;SDS011;59323;50.874;7.028;2024-02-26T07:39:28;3.22;;;1.27;;
71503;SDS011;59323;50.874;7.028;2024-02-26T07:41:56;3.90;;;1.03;;
71503;SDS011;59323;50.874;7.028;2024-02-26T07:44:21;3.83;;;1.20;;
71503;SDS011;59323;50.874;7.028;2024-02-26T07:46:46;6.60;;;1.10;;
71503;SDS011;59323;50.874;7.028;2024-02-26T07:49:12;3.77;;;1.07;;
71503;SDS011;59323;50.874;7.028;2024-02-26T07:51:39;2.72;;;0.95;;
71503;SDS011;59323;50.874;7.028;2024-02-26T07:54:05;3.30;;;1.07;;
71503;SDS011;59323;50.874;7.028;2024-02-26T07:56:30;3.63;;;1.00;;
71503;SDS011;59323;50.874;7.028;2024-02-26T07:58:55;5.33;;;0.97;;
71503;SDS011;59323;50.874;7.028;2024-02-26T08:01:21;3.60;;;1.17;;
71503;SDS011;59323;50.874;7.028;2024-02-26T08:03:48;4.13;;;1.40;;
71503;SDS011;59323;50.874;7.028;2024-02-26T08:06:21;4.63;;;1.40;;
71503;SDS011;59323;50.874;7.028;2024-02-26T08:08:49;4.50;;;1.25;;
71503;SDS011;59323;50.874;7.028;2024-02-26T08:11:15;6.43;;;1.33;;
71503;SDS011;59323;50.874;7.028;2024-02-26T08:13:44;3.20;;;1.17;;
71503;SDS011;59323;50.874;7.028;2024-02-26T08:16:17;3.90;;;1.20;;
71503;SDS011;59323;50.874;7.028;2024-02-26T08:18:42;5.10;;;1.30;;
71503;SDS011;59323;50.874;7.028;2024-02-26T08:21:10;4.50;;;1.13;;
71503;SDS011;59323;50.874;7.028;2024-02-26T08:23:36;4.37;;;1.40;;
71503;SDS011;59323;50.874;7.028;2024-02-26T08:26:01;2.97;;;1.00;;
71503;SDS011;59323;50.874;7.028;2024-02-26T08:28:29;4.00;;;1.30;;
71503;SDS011;59323;50.874;7.028;2024-02-26T08:30:57;4.05;;;1.10;;
71503;SDS011;59323;50.874;7.028;2024-02-26T08:33:22;4.53;;;1.20;;
71503;SDS011;59323;50.874;7.028;2024-02-26T08:35:47;3.10;;;0.87;;
71503;SDS011;59323;50.874;7.028;2024-02-26T08:38:13;4.93;;;1.58;;
71503;SDS011;59323;50.874;7.028;2024-02-26T08:40:38;5.00;;;1.30;;
71503;SDS011;59323;50.874;7.028;2024-02-26T08:43:04;4.80;;;1.43;;
71503;SDS011;59323;50.874;7.028;2024-02-26T08:45:30;6.60;;;1.33;;
71503;SDS011;59323;50.874;7.028;2024-02-26T08:47:57;4.47;;;1.43;;
71503;SDS011;59323;50.874;7.028;2024-02-26T08:50:24;5.37;;;1.10;;
71503;SDS011;59323;50.874;7.028;2024-02-26T08:52:49;4.25;;;1.27;;
71503;SDS011;59323;50.874;7.028;2024-02-26T08:55:16;5.73;;;1.00;;
71503;SDS011;59323;50.874;7.028;2024-02-26T08:57:42;4.95;;;1.27;;
71503;SDS011;59323;50.874;7.028;2024-02-26T09:00:07;4.37;;;1.20;;
71503;SDS011;59323;50.874;7.028;2024-02-26T09:02:33;4.75;;;1.80;;
71503;SDS011;59323;50.874;7.028;2024-02-26T09:05:03;4.00;;;1.20;;
71503;SDS011;59323;50.874;7.028;2024-02-26T09:07:33;5.97;;;1.50;;
71503;SDS011;59323;50.874;7.028;2024-02-26T09:09:59;5.60;;;1.47;;
71503;SDS011;59323;50.874;7.028;2024-02-26T09:12:24;3.85;;;1.40;;
71503;SDS011;59323;50.874;7.028;2024-02-26T09:14:49;5.27;;;1.40;;
71503;SDS011;59323;50.874;7.028;2024-02-26T09:17:17;5.43;;;1.50;;
71503;SDS011;59323;50.874;7.028;2024-02-26T09:19:45;3.65;;;1.10;;
71503;SDS011;59323;50.874;7.028;2024-02-26T09:22:18;4.70;;;1.60;;
71503;SDS011;59323;50.874;7.028;2024-02-26T09:25:03;3.60;;;1.25;;
71503;SDS011;59323;50.874;7.028;2024-02-26T09:27:31;6.65;;;1.65;;
71503;SDS011;59323;50.874;7.028;2024-02-26T09:29:57;5.53;;;1.30;;
71503;SDS011;59323;50.874;7.028;2024-02-26T09:32:22;3.63;;;1.10;;
71503;SDS011;59323;50.874;7.028;2024-02-26T09:34:52;5.35;;;1.60;;
71503;SDS011;59323;50.874;7.028;2024-02-26T09:37:26;4.55;;;1.58;;
71503;SDS011;59323;50.874;7.028;2024-02-26T09:39:53;5.35;;;1.40;;
71503;SDS011;59323;50.874;7.028;2024-02-26T09:42:19;6.27;;;1.40;;
71503;SDS011;59323;50.874;7.028;2024-02-26T09:44:47;5.57;;;1.27;;
71503;SDS011;59323;50.874;7.028;2024-02-26T09:47:16;5.65;;;1.67;;
71503;SDS011;59323;50.874;7.028;2024-02-26T09:49:43;4.73;;;1.30;;
71503;SDS011;59323;50.874;7.028;2024-02-26T09:52:09;4.82;;;1.63;;
71503;SDS011;59323;50.874;7.028;2024-02-26T09:54:35;5.17;;;1.60;;
71503;SDS011;59323;50.874;7.028;2024-02-26T09:57:03;4.27;;;1.43;;
71503;SDS011;59323;50.874;7.028;2024-02-26T09:59:35;5.32;;;1.50;;
71503;SDS011;59323;50.874;7.028;2024-02-26T10:02:13;5.72;;;1.55;;
71503;SDS011;59323;50.874;7.028;2024-02-26T10:04:40;5.10;;;1.60;;
71503;SDS011;59323;50.874;7.028;2024-02-26T10:07:09;4.85;;;1.30;;
71503;SDS011;59323;50.874;7.028;2024-02-26T10:09:36;6.45;;;1.60;;
71503;SDS011;59323;50.874;7.028;2024-02-26T10:12:05;6.38;;;1.38;;
71503;SDS011;59323;50.874;7.028;2024-02-26T10:14:36;7.53;;;1.60;;
71503;SDS011;59323;50.874;7.028;2024-02-26T10:17:04;4.17;;;1.60;;
71503;SDS011;59323;50.874;7.028;2024-02-26T10:19:33;3.65;;;1.33;;
71503;SDS011;59323;50.874;7.028;2024-02-26T10:22:11;6.40;;;1.40;;
71503;SDS011;59323;50.874;7.028;2024-02-26T10:24:43;4.25;;;1.55;;
71503;SDS011;59323;50.874;7.028;2024-02-26T10:27:33;4.93;;;1.50;;
71503;SDS011;59323;50.874;7.028;2024-02-26T10:30:02;6.73;;;1.43;;
71503;SDS011;59323;50.874;7.028;2024-02-26T10:32:28;5.53;;;1.67;;
71503;SDS011;59323;50.874;7.028;2024-02-26T10:34:56;5.40;;;1.60;;
71503;SDS011;59323;50.874;7.028;2024-02-26T10:37:51;5.85;;;1.58;;
71503;SDS011;59323;50.874;7.028;2024-02-26T10:40:23;6.75;;;1.55;;
71503;SDS011;59323;50.874;7.028;2024-02-26T10:42:55;6.07;;;1.87;;
71503;SDS011;59323;50.874;7.028;2024-02-26T10:45:25;5.72;;;1.40;;
71503;SDS011;59323;50.874;7.028;2024-02-26T10:48:02;5.40;;;1.65;;
71503;SDS011;59323;50.874;7.028;2024-02-26T10:50:34;9.25;;;1.40;;
71503;SDS011;59323;50.874;7.028;2024-02-26T10:52:59;6.03;;;1.60;;
71503;SDS011;59323;50.874;7.028;2024-02-26T10:55:25;4.53;;;1.60;;
71503;SDS011;59323;50.874;7.028;2024-02-26T10:57:52;5.55;;;1.77;;
71503;SDS011;59323;50.874;7.028;2024-02-26T11:00:21;4.07;;;1.50;;
71503;SDS011;59323;50.874;7.028;2024-02-26T11:02:47;6.00;;;1.88;;
71503;SDS011;59323;50.874;7.028;2024-02-26T11:05:13;7.68;;;1.63;;
71503;SDS011;59323;50.874;7.028;2024-02-26T11:07:39;4.95;;;1.50;;
71503;SDS011;59323;50.874;7.028;2024-02-26T11:10:06;4.80;;;1.53;;
71503;SDS011;59323;50.874;7.028;2024-02-26T11:12:33;4.93;;;1.35;;
71503;SDS011;59323;50.874;7.028;2024-02-26T11:15:03;4.25;;;1.50;;
71503;SDS011;59323;50.874;7.028;2024-02-26T11:17:28;6.43;;;1.77;;
71503;SDS011;59323;50.874;7.028;2024-02-26T11:19:58;6.25;;;1.50;;
71503;SDS011;59323;50.874;7.028;2024-02-26T11:22:24;4.37;;;1.50;;
71503;SDS011;59323;50.874;7.028;2024-02-26T11:24:54;6.97;;;2.35;;
71503;SDS011;59323;50.874;7.028;2024-02-26T11:27:23;6.13;;;2.55;;
71503;SDS011;59323;50.874;7.028;2024-02-26T11:29:57;7.88;;;2.95;;
71503;SDS011;59323;50.874;7.028;2024-02-26T11:32:26;9.52;;;2.60;;
71503;SDS011;59323;50.874;7.028;2024-02-26T11:34:55;6.27;;;2.10;;
71503;SDS011;59323;50.874;7.028;2024-02-26T11:37:22;6.38;;;1.90;;
71503;SDS011;59323;50.874;7.028;2024-02-26T11:39:48;5.35;;;1.85;;
71503;SDS011;59323;50.874;7.028;2024-02-26T11:42:17;5.13;;;1.20;;
71503;SDS011;59323;50.874;7.028;2024-02-26T11:44:43;5.83;;;1.97;;
71503;SDS011;59323;50.874;7.028;2024-02-26T11:47:12;4.53;;;1.60;;
71503;SDS011;59323;50.874;7.028;2024-02-26T11:49:39;4.63;;;1.60;;
71503;SDS011;59323;50.874;7.028;2024-02-26T11:52:05;8.25;;;2.30;;
71503;SDS011;59323;50.874;7.028;2024-02-26T11:57:21;5.87;;;1.90;;
71503;SDS011;59323;50.874;7.028;2024-02-26T11:59:54;7.07;;;2.08;;
71503;SDS011;59323;50.874;7.028;2024-02-26T12:03:08;5.00;;;1.58;;
71503;SDS011;59323;50.874;7.028;2024-02-26T12:05:12;7.10;;;1.95;;
71503;SDS011;59323;50.874;7.028;2024-02-26T12:07:43;5.53;;;1.58;;
71503;SDS011;59323;50.874;7.028;2024-02-26T12:15:41;5.80;;;1.88;;
71503;SDS011;59323;50.874;7.028;2024-02-26T12:18:08;4.68;;;1.80;;
71503;SDS011;59323;50.874;7.028;2024-02-26T12:20:35;5.80;;;1.90;;
71503;SDS011;59323;50.874;7.028;2024-02-26T12:23:05;8.77;;;1.70;;
71503;SDS011;59323;50.874;7.028;2024-02-26T12:25:33;5.95;;;1.88;;
71503;SDS011;59323;50.874;7.028;2024-02-26T12:27:59;4.68;;;1.70;;
71503;SDS011;59323;50.874;7.028;2024-02-26T12:30:25;5.63;;;2.00;;
71503;SDS011;59323;50.874;7.028;2024-02-26T12:32:51;6.25;;;1.70;;
71503;SDS011;59323;50.874;7.028;2024-02-26T12:35:25;6.70;;;2.00;;
71503;SDS011;59323;50.874;7.028;2024-02-26T12:37:52;6.00;;;1.60;;
71503;SDS011;59323;50.874;7.028;2024-02-26T12:40:21;6.30;;;2.00;;
71503;SDS011;59323;50.874;7.028;2024-02-26T12:42:47;5.13;;;1.70;;
71503;SDS011;59323;50.874;7.028;2024-02-26T12:45:14;7.50;;;2.83;;
71503;SDS011;59323;50.874;7.028;2024-02-26T12:47:41;6.03;;;2.35;;
71503;SDS011;59323;50.874;7.028;2024-02-26T12:50:08;6.18;;;2.28;;
71503;SDS011;59323;50.874;7.028;2024-02-26T12:52:39;5.30;;;1.80;;
71503;SDS011;59323;50.874;7.028;2024-02-26T12:55:06;3.90;;;1.43;;
71503;SDS011;59323;50.874;7.028;2024-02-26T12:57:37;6.38;;;1.90;;
71503;SDS011;59323;50.874;7.028;2024-02-26T13:00:04;5.60;;;1.92;;
71503;SDS011;59323;50.874;7.028;2024-02-26T13:02:34;6.43;;;1.90;;
71503;SDS011;59323;50.874;7.028;2024-02-26T13:05:01;7.85;;;2.00;;
71503;SDS011;59323;50.874;7.028;2024-02-26T13:07:29;5.30;;;1.93;;
71503;SDS011;59323;50.874;7.028;2024-02-26T13:09:55;5.35;;;1.73;;
71503;SDS011;59323;50.874;7.028;2024-02-26T13:12:21;6.50;;;2.27;;
71503;SDS011;59323;50.874;7.028;2024-02-26T13:14:46;6.55;;;1.92;;
71503;SDS011;59323;50.874;7.028;2024-02-26T13:17:12;6.33;;;2.30;;
71503;SDS011;59323;50.874;7.028;2024-02-26T13:19:37;5.53;;;1.67;;
71503;SDS011;59323;50.874;7.028;2024-02-26T13:22:06;5.25;;;2.20;;
71503;SDS011;59323;50.874;7.028;2024-02-26T13:24:35;5.40;;;1.95;;
71503;SDS011;59323;50.874;7.028;2024-02-26T13:27:01;6.03;;;1.77;;
71503;SDS011;59323;50.874;7.028;2024-02-26T13:29:30;6.07;;;1.98;;
71503;SDS011;59323;50.874;7.028;2024-02-26T13:31:58;5.80;;;1.83;;
71503;SDS011;59323;50.874;7.028;2024-02-26T13:36:55;5.57;;;1.88;;
71503;SDS011;59323;50.874;7.028;2024-02-26T13:39:22;8.32;;;2.72;;
71503;SDS011;59323;50.874;7.028;2024-02-26T13:41:51;6.88;;;2.03;;
71503;SDS011;59323;50.874;7.028;2024-02-26T13:44:23;8.40;;;2.17;;
71503;SDS011;59323;50.874;7.028;2024-02-26T13:46:58;9.60;;;2.33;;
71503;SDS011;59323;50.874;7.028;2024-02-26T13:49:24;6.28;;;2.05;;
71503;SDS011;59323;50.874;7.028;2024-02-26T13:51:52;5.93;;;2.28;;
71503;SDS011;59323;50.874;7.028;2024-02-26T13:54:17;6.63;;;2.27;;
71503;SDS011;59323;50.874;7.028;2024-02-26T13:56:44;8.05;;;2.65;;
71503;SDS011;59323;50.874;7.028;2024-02-26T13:59:10;8.33;;;2.50;;
71503;SDS011;59323;50.874;7.028;2024-02-26T14:01:37;8.00;;;2.38;;
71503;SDS011;59323;50.874;7.028;2024-02-26T14:04:05;6.03;;;2.00;;
71503;SDS011;59323;50.874;7.028;2024-02-26T14:06:32;6.97;;;2.10;;
71503;SDS011;59323;50.874;7.028;2024-02-26T14:09:02;5.20;;;2.10;;
71503;SDS011;59323;50.874;7.028;2024-02-26T14:11:34;7.68;;;2.63;;
71503;SDS011;59323;50.874;7.028;2024-02-26T14:14:00;7.10;;;2.30;;
71503;SDS011;59323;50.874;7.028;2024-02-26T14:16:28;9.95;;;2.78;;
71503;SDS011;59323;50.874;7.028;2024-02-26T14:18:53;12.80;;;4.50;;
71503;SDS011;59323;50.874;7.028;2024-02-26T14:21:19;8.57;;;2.55;;
71503;SDS011;59323;50.874;7.028;2024-02-26T14:23:44;10.70;;;3.37;;
71503;SDS011;59323;50.874;7.028;2024-02-26T14:26:12;8.15;;;2.92;;
71503;SDS011;59323;50.874;7.028;2024-02-26T14:28:37;8.77;;;2.80;;
71503;SDS011;59323;50.874;7.028;2024-02-26T14:31:03;9.40;;;2.70;;
71503;SDS011;59323;50.874;7.028;2024-02-26T14:33:34;7.88;;;2.65;;
71503;SDS011;59323;50.874;7.028;2024-02-26T14:36:03;8.13;;;2.97;;
71503;SDS011;59323;50.874;7.028;2024-02-26T14:38:31;7.90;;;2.63;;
71503;SDS011;59323;50.874;7.028;2024-02-26T14:40:58;7.77;;;2.50;;
71503;SDS011;59323;50.874;7.028;2024-02-26T14:43:24;11.32;;;3.58;;
71503;SDS011;59323;50.874;7.028;2024-02-26T14:45:52;9.90;;;3.50;;
71503;SDS011;59323;50.874;7.028;2024-02-26T14:48:17;8.48;;;3.08;;
71503;SDS011;59323;50.874;7.028;2024-02-26T14:50:43;7.90;;;2.97;;
71503;SDS011;59323;50.874;7.028;2024-02-26T14:53:08;11.60;;;4.50;;
71503;SDS011;59323;50.874;7.028;2024-02-26T14:55:34;10.47;;;3.73;;
71503;SDS011;59323;50.874;7.028;2024-02-26T14:58:02;12.85;;;3.33;;